createdAt,value
2023-05-22T00:01:12.470Z,63.52
2023-05-22T00:03:39.352Z,63.55
2023-05-22T00:06:10.342Z,63.23
2023-05-22T00:08:37.264Z,63.41
2023-05-22T00:11:04.739Z,63.88
2023-05-22T00:13:31.848Z,63.39
2023-05-22T00:15:58.524Z,63.34
2023-05-22T00:18:27.342Z,63.51
2023-05-22T00:20:54.477Z,63.47
2023-05-22T00:23:22.110Z,63.33
2023-05-22T00:25:50.036Z,63.19
2023-05-22T00:28:16.786Z,62.95
2023-05-22T00:30:43.508Z,63.11
2023-05-22T00:33:10.270Z,63.39
2023-05-22T00:35:37.014Z,63.22
2023-05-22T00:38:05.772Z,63.70
2023-05-22T00:40:32.790Z,63.68
2023-05-22T00:43:00.658Z,63.88
2023-05-22T00:45:28.076Z,64.07
2023-05-22T00:47:54.948Z,64.04
2023-05-22T00:50:21.737Z,63.87
2023-05-22T00:52:48.658Z,63.63
2023-05-22T00:55:16.931Z,63.47
2023-05-22T00:57:43.876Z,64.07
2023-05-22T01:00:11.491Z,63.81
2023-05-22T01:02:38.456Z,63.44
2023-05-22T01:05:11.579Z,63.51
2023-05-22T01:07:38.267Z,63.31
2023-05-22T01:10:06.452Z,63.43
2023-05-22T01:13:01.131Z,63.61
2023-05-22T01:15:33.514Z,63.59
2023-05-22T01:18:22.671Z,63.98
2023-05-22T01:21:06.472Z,64.14
2023-05-22T01:23:36.789Z,64.01
2023-05-22T01:26:34.334Z,64.02
2023-05-22T01:29:06.869Z,64.01
2023-05-22T01:31:38.365Z,64.56
2023-05-22T01:34:07.512Z,64.63
2023-05-22T01:36:37.249Z,64.80
2023-05-22T01:39:06.784Z,64.74
2023-05-22T01:41:34.385Z,64.95
2023-05-22T01:44:02.359Z,65.02
2023-05-22T01:46:30.549Z,65.44
2023-05-22T01:48:58.244Z,65.43
2023-05-22T01:51:34.143Z,66.12
2023-05-22T01:54:09.888Z,66.21
2023-05-22T01:56:44.426Z,66.62
2023-05-22T01:59:21.488Z,67.10
2023-05-22T02:01:51.886Z,67.21
2023-05-22T02:04:23.319Z,67.30
2023-05-22T02:06:53.881Z,67.68
2023-05-22T02:09:23.597Z,67.71
2023-05-22T02:11:51.440Z,67.69
2023-05-22T02:14:18.790Z,67.64
2023-05-22T02:16:47.864Z,68.04
2023-05-22T02:19:15.467Z,67.93
2023-05-22T02:21:42.790Z,68.22
2023-05-22T02:24:09.985Z,68.41
2023-05-22T02:26:37.850Z,68.43
2023-05-22T02:29:04.952Z,68.55
2023-05-22T02:31:31.729Z,68.80
2023-05-22T02:33:58.652Z,69.15
2023-05-22T02:36:26.418Z,68.98
2023-05-22T02:38:53.154Z,68.95
2023-05-22T02:41:19.970Z,69.48
2023-05-22T02:43:46.670Z,69.34
2023-05-22T02:46:13.544Z,69.37
2023-05-22T02:48:40.872Z,69.43
2023-05-22T02:51:07.645Z,69.61
2023-05-22T02:53:35.573Z,69.64
2023-05-22T02:56:03.445Z,69.61
2023-05-22T02:58:30.174Z,69.45
2023-05-22T03:00:57.208Z,69.39
2023-05-22T03:03:25.703Z,69.78
2023-05-22T03:05:58.616Z,69.46
2023-05-22T03:08:28.522Z,69.97
2023-05-22T03:10:59.847Z,69.67
2023-05-22T03:13:26.692Z,69.49
2023-05-22T03:15:53.538Z,69.79
2023-05-22T03:18:20.433Z,69.88
2023-05-22T03:20:47.280Z,69.48
2023-05-22T03:23:14.063Z,69.80
2023-05-22T03:25:41.904Z,69.79
2023-05-22T03:28:08.693Z,69.76
2023-05-22T03:30:36.482Z,69.55
2023-05-22T03:33:03.311Z,69.74
2023-05-22T03:35:29.973Z,68.94
2023-05-22T03:37:56.824Z,68.63
2023-05-22T03:40:23.591Z,67.76
2023-05-22T03:42:50.305Z,67.34
2023-05-22T03:45:17.115Z,66.71
2023-05-22T03:47:43.888Z,65.21
2023-05-22T03:50:11.286Z,64.06
2023-05-22T03:52:38.448Z,63.62
2023-05-22T03:55:06.503Z,62.69
2023-05-22T03:57:33.245Z,62.24
2023-05-22T04:00:10.038Z,61.14
2023-05-22T04:02:39.580Z,60.24
2023-05-22T04:05:08.387Z,59.22
2023-05-22T04:07:35.205Z,59.36
2023-05-22T04:10:03.697Z,58.60
2023-05-22T04:12:30.463Z,58.94
2023-05-22T04:14:57.163Z,58.66
2023-05-22T04:17:24.070Z,58.04
2023-05-22T04:19:51.027Z,57.99
2023-05-22T04:22:17.822Z,57.31
2023-05-22T04:24:44.636Z,57.01
2023-05-22T04:27:11.394Z,56.86
2023-05-22T04:29:38.177Z,55.90
2023-05-22T04:32:06.492Z,56.09
2023-05-22T04:34:33.921Z,55.62
2023-05-22T04:37:00.718Z,54.81
2023-05-22T04:39:27.607Z,55.55
2023-05-22T04:41:54.628Z,53.99
2023-05-22T04:44:24.119Z,53.15
2023-05-22T04:46:51.361Z,52.97
2023-05-22T04:49:18.320Z,51.64
2023-05-22T04:51:45.044Z,51.99
2023-05-22T04:54:11.917Z,51.97
2023-05-22T04:56:38.639Z,52.47
2023-05-22T04:59:09.487Z,51.86
2023-05-22T05:01:38.334Z,51.40
2023-05-22T05:04:05.156Z,51.34
2023-05-22T05:06:32.065Z,50.55
2023-05-22T05:08:59.087Z,50.13
2023-05-22T05:11:26.288Z,50.20
2023-05-22T05:13:53.012Z,50.14
2023-05-22T05:16:19.872Z,50.27
2023-05-22T05:18:46.742Z,50.23
2023-05-22T05:21:13.756Z,49.96
2023-05-22T05:23:43.101Z,48.49
2023-05-22T05:26:09.919Z,47.77
2023-05-22T05:28:40.471Z,47.05
2023-05-22T05:31:07.985Z,47.32
2023-05-22T05:33:34.704Z,47.79
2023-05-22T05:36:01.423Z,46.80
2023-05-22T05:38:28.275Z,47.42
2023-05-22T05:40:55.159Z,46.57
2023-05-22T05:43:22.208Z,46.38
2023-05-22T05:45:49.019Z,45.74
2023-05-22T05:48:15.724Z,46.36
2023-05-22T05:50:42.832Z,44.68
2023-05-22T05:53:09.657Z,45.72
2023-05-22T05:55:36.373Z,46.15
2023-05-22T05:58:03.069Z,45.14
2023-05-22T06:00:29.915Z,45.64
2023-05-22T06:02:56.835Z,45.58
2023-05-22T06:05:23.719Z,45.12
2023-05-22T06:07:50.728Z,45.48
2023-05-22T06:10:17.519Z,44.94
2023-05-22T06:12:44.406Z,44.40
2023-05-22T06:15:13.337Z,44.87
2023-05-22T06:17:40.284Z,44.16
2023-05-22T06:20:08.469Z,43.48
2023-05-22T06:22:35.176Z,43.52
2023-05-22T06:25:02.014Z,43.07
2023-05-22T06:27:29.019Z,43.02
2023-05-22T06:29:56.613Z,42.88
2023-05-22T06:32:23.661Z,42.52
2023-05-22T06:34:50.566Z,42.87
2023-05-22T06:37:17.694Z,42.91
2023-05-22T06:39:44.575Z,42.83
2023-05-22T06:42:11.408Z,43.15
2023-05-22T06:44:40.169Z,43.58
2023-05-22T06:47:07.180Z,44.24
2023-05-22T06:49:33.966Z,43.77
2023-05-22T06:52:01.471Z,42.45
2023-05-22T06:54:30.796Z,42.00
2023-05-22T06:56:57.747Z,42.24
2023-05-22T06:59:24.508Z,42.76
2023-05-22T07:01:51.609Z,42.40
2023-05-22T07:04:18.488Z,42.49
2023-05-22T07:06:48.843Z,42.14
2023-05-22T07:09:16.061Z,41.85
2023-05-22T07:11:44.080Z,41.51
2023-05-22T07:14:12.782Z,41.22
2023-05-22T07:16:40.707Z,41.27
2023-05-22T07:19:08.940Z,41.21
2023-05-22T07:21:36.311Z,40.82
2023-05-22T07:24:08.396Z,40.83
2023-05-22T07:26:36.399Z,39.88
2023-05-22T07:29:03.679Z,39.50
2023-05-22T07:31:34.586Z,39.67
2023-05-22T07:34:01.709Z,40.15
2023-05-22T07:36:28.456Z,40.37
2023-05-22T07:38:55.281Z,40.63
2023-05-22T07:41:22.996Z,40.58
2023-05-22T07:43:50.308Z,40.66
2023-05-22T07:46:17.186Z,40.40
2023-05-22T07:48:44.197Z,40.45
2023-05-22T07:51:10.984Z,40.36
2023-05-22T07:53:37.745Z,40.93
2023-05-22T07:56:04.686Z,40.91
2023-05-22T07:58:31.599Z,40.42
2023-05-22T08:00:58.566Z,39.98
2023-05-22T08:03:25.661Z,39.31
2023-05-22T08:05:52.552Z,39.54
2023-05-22T08:08:19.555Z,40.54
2023-05-22T08:11:02.368Z,40.78
2023-05-22T08:13:29.577Z,39.92
2023-05-22T08:16:00.253Z,41.37
2023-05-22T08:18:29.530Z,41.27
2023-05-22T08:20:56.845Z,41.01
2023-05-22T08:23:23.620Z,40.80
2023-05-22T08:25:50.450Z,41.92
2023-05-22T08:28:17.526Z,42.04
2023-05-22T08:30:44.282Z,42.52
2023-05-22T08:33:12.459Z,41.86
2023-05-22T08:35:39.843Z,42.45
2023-05-22T08:38:06.693Z,43.37
2023-05-22T08:40:38.686Z,43.06
2023-05-22T08:43:06.914Z,42.82
2023-05-22T08:45:34.610Z,43.00
2023-05-22T08:48:06.434Z,42.58
2023-05-22T08:50:37.249Z,43.11
2023-05-22T08:53:08.247Z,43.76
2023-05-22T08:55:35.350Z,41.73
2023-05-22T08:58:02.921Z,42.21
2023-05-22T09:00:30.354Z,41.61
2023-05-22T09:02:58.120Z,41.06
2023-05-22T09:05:26.958Z,40.80
2023-05-22T09:08:02.716Z,40.95
2023-05-22T09:10:36.072Z,40.63
2023-05-22T09:13:11.561Z,40.12
2023-05-22T09:15:38.704Z,38.99
2023-05-22T09:18:06.928Z,38.83
2023-05-22T09:20:39.326Z,40.24
2023-05-22T09:23:18.168Z,39.56
2023-05-22T09:25:45.735Z,40.10
2023-05-22T09:28:13.378Z,41.56
2023-05-22T09:30:42.853Z,42.38
2023-05-22T09:33:13.131Z,42.16
2023-05-22T09:35:40.191Z,41.66
2023-05-22T09:38:07.113Z,41.64
2023-05-22T09:40:35.328Z,41.68
2023-05-22T09:43:06.829Z,41.63
2023-05-22T09:45:36.249Z,42.31
2023-05-22T09:48:06.973Z,43.64
2023-05-22T09:50:33.977Z,42.93
2023-05-22T09:53:03.599Z,42.00
2023-05-22T09:55:31.136Z,42.34
2023-05-22T09:58:00.043Z,43.37
2023-05-22T10:00:28.264Z,43.57
2023-05-22T10:03:09.770Z,42.71
2023-05-22T10:05:39.425Z,42.95
2023-05-22T10:08:11.279Z,42.61
2023-05-22T10:10:39.540Z,41.64
2023-05-22T10:13:08.103Z,41.69
2023-05-22T10:15:35.754Z,40.78
2023-05-22T10:18:03.300Z,41.57
2023-05-22T10:20:31.035Z,42.49
2023-05-22T10:22:57.809Z,42.72
2023-05-22T10:25:25.933Z,42.62
2023-05-22T10:27:54.030Z,42.90
2023-05-22T10:30:46.668Z,43.17
2023-05-22T10:33:26.036Z,43.14
2023-05-22T10:36:05.006Z,42.89
2023-05-22T10:39:01.431Z,42.72
2023-05-22T10:41:28.591Z,43.35
2023-05-22T10:43:57.201Z,42.79
2023-05-22T10:46:24.230Z,42.10
2023-05-22T10:48:54.388Z,42.29
2023-05-22T10:51:23.439Z,40.96
2023-05-22T10:54:02.670Z,41.43
2023-05-22T10:56:36.404Z,41.62
2023-05-22T10:59:06.294Z,41.46
2023-05-22T11:01:38.560Z,40.92
2023-05-22T11:04:07.108Z,41.28
2023-05-22T11:06:37.765Z,41.71
2023-05-22T11:09:31.560Z,42.14
2023-05-22T11:12:17.977Z,41.51
2023-05-22T11:14:57.072Z,40.82
2023-05-22T11:17:28.039Z,40.22
2023-05-22T11:20:05.805Z,40.42
2023-05-22T11:22:41.660Z,40.44
2023-05-22T11:25:19.164Z,40.94
2023-05-22T11:27:47.848Z,40.75
2023-05-22T11:30:16.536Z,40.08
2023-05-22T11:32:45.387Z,39.41
2023-05-22T11:35:19.437Z,40.14
2023-05-22T11:37:47.601Z,40.93
2023-05-22T11:40:17.066Z,41.01
2023-05-22T11:42:44.454Z,41.66
2023-05-22T11:45:11.805Z,41.67
2023-05-22T11:47:39.402Z,41.92
2023-05-22T11:50:09.139Z,42.93
2023-05-22T11:52:38.294Z,43.10
2023-05-22T11:55:06.105Z,41.96
2023-05-22T11:57:33.313Z,41.88
2023-05-22T12:00:00.063Z,42.75
2023-05-22T12:02:27.372Z,41.80
2023-05-22T12:04:58.335Z,41.66
2023-05-22T12:07:29.425Z,41.27
2023-05-22T12:09:57.487Z,40.86
2023-05-22T12:12:27.346Z,41.48
2023-05-22T12:14:54.224Z,41.00
2023-05-22T12:17:20.881Z,40.11
2023-05-22T12:19:47.870Z,41.31
2023-05-22T12:22:14.785Z,40.82
2023-05-22T12:24:42.796Z,40.80
2023-05-22T12:27:10.921Z,40.88
2023-05-22T12:29:38.974Z,41.28
2023-05-22T12:32:08.859Z,40.89
2023-05-22T12:34:36.815Z,41.17
2023-05-22T12:37:03.708Z,40.80
2023-05-22T12:39:30.691Z,39.93
2023-05-22T12:41:57.463Z,40.50
2023-05-22T12:44:24.132Z,41.10
2023-05-22T12:46:52.556Z,41.74
2023-05-22T12:49:20.324Z,41.45
2023-05-22T12:51:47.078Z,40.66
2023-05-22T12:54:15.515Z,39.83
2023-05-22T12:56:42.390Z,40.25
2023-05-22T12:59:13.551Z,39.62
2023-05-22T13:01:41.433Z,39.91
2023-05-22T13:04:08.202Z,40.41
2023-05-22T13:06:35.186Z,40.66
2023-05-22T13:09:01.980Z,41.16
2023-05-22T13:11:31.542Z,41.15
2023-05-22T13:14:05.623Z,41.69
2023-05-22T13:16:32.409Z,41.84
2023-05-22T13:19:03.834Z,41.69
2023-05-22T13:21:31.718Z,41.34
2023-05-22T13:23:58.614Z,41.46
2023-05-22T13:26:26.394Z,41.00
2023-05-22T13:28:53.198Z,41.50
2023-05-22T13:31:28.649Z,41.35
2023-05-22T13:34:01.597Z,41.23
2023-05-22T13:36:50.792Z,40.91
2023-05-22T13:39:39.445Z,41.02
2023-05-22T13:42:07.668Z,40.81
2023-05-22T13:44:36.665Z,40.42
2023-05-22T13:47:06.649Z,40.53
2023-05-22T13:49:33.322Z,40.62
2023-05-22T13:52:00.521Z,41.35
2023-05-22T13:54:27.831Z,41.04
2023-05-22T13:56:56.829Z,40.86
2023-05-22T13:59:28.252Z,40.88
2023-05-22T14:01:55.207Z,41.31
2023-05-22T14:04:21.972Z,41.23
2023-05-22T14:06:48.723Z,40.75
2023-05-22T14:09:15.550Z,40.14
2023-05-22T14:11:42.324Z,40.23
2023-05-22T14:26:53.255Z,40.24
2023-05-22T14:29:27.228Z,39.77
2023-05-22T14:32:01.475Z,39.29
2023-05-22T14:34:28.361Z,40.29
2023-05-22T14:36:56.914Z,40.26
2023-05-22T14:39:27.514Z,40.68
2023-05-22T14:41:58.889Z,40.67
2023-05-22T14:44:26.630Z,40.67
2023-05-22T14:46:54.780Z,40.60
2023-05-22T14:49:21.594Z,40.29
2023-05-22T14:51:49.547Z,40.55
2023-05-22T14:54:20.725Z,41.34
2023-05-22T14:56:48.168Z,41.31
2023-05-22T14:59:15.594Z,41.82
2023-05-22T15:01:42.422Z,41.94
2023-05-22T15:04:18.505Z,42.37
2023-05-22T15:06:45.424Z,42.25
2023-05-22T15:09:12.205Z,42.50
2023-05-22T15:11:41.152Z,42.71
2023-05-22T15:14:07.946Z,42.83
2023-05-22T15:16:34.682Z,42.86
2023-05-22T15:19:01.520Z,43.06
2023-05-22T15:21:28.443Z,43.23
2023-05-22T15:23:56.532Z,42.99
2023-05-22T15:26:23.323Z,43.46
2023-05-22T15:28:50.192Z,43.91
2023-05-22T15:31:17.059Z,43.92
2023-05-22T15:33:43.986Z,43.98
2023-05-22T15:36:10.960Z,43.26
2023-05-22T15:38:37.690Z,43.69
2023-05-22T15:41:05.744Z,43.48
2023-05-22T15:43:32.565Z,43.93
2023-05-22T15:46:00.028Z,44.02
2023-05-22T15:48:26.814Z,44.04
2023-05-22T15:50:53.476Z,44.19
2023-05-22T15:53:22.158Z,44.39
2023-05-22T15:55:49.757Z,44.79
2023-05-22T15:58:16.712Z,45.00
2023-05-22T16:00:44.009Z,45.30
2023-05-22T16:03:11.397Z,45.51
2023-05-22T16:05:41.777Z,45.76
2023-05-22T16:08:10.711Z,46.01
2023-05-22T16:10:37.595Z,46.14
2023-05-22T16:13:10.636Z,46.47
2023-05-22T16:15:40.012Z,46.77
2023-05-22T16:18:07.564Z,47.13
2023-05-22T16:20:35.685Z,47.13
2023-05-22T16:23:02.581Z,47.76
2023-05-22T16:25:29.333Z,47.65
2023-05-22T16:28:00.148Z,47.73
2023-05-22T16:30:27.194Z,47.93
2023-05-22T16:32:57.015Z,48.36
2023-05-22T16:35:26.363Z,48.57
2023-05-22T16:37:54.988Z,48.67
2023-05-22T16:40:22.674Z,48.70
2023-05-22T16:42:52.174Z,49.09
2023-05-22T16:45:23.691Z,49.19
2023-05-22T16:48:00.406Z,49.63
2023-05-22T16:50:30.540Z,49.80
2023-05-22T16:52:57.525Z,49.82
2023-05-22T16:55:24.394Z,50.19
2023-05-22T16:57:53.574Z,50.34
2023-05-22T17:00:25.391Z,50.42
2023-05-22T17:02:52.928Z,50.68
2023-05-22T17:05:20.637Z,50.96
2023-05-22T17:07:47.548Z,50.81
2023-05-22T17:10:14.296Z,50.89
2023-05-22T17:12:41.241Z,51.64
2023-05-22T17:15:16.087Z,51.44
2023-05-22T17:17:43.132Z,51.78
2023-05-22T17:20:13.837Z,51.96
2023-05-22T17:22:40.776Z,52.22
2023-05-22T17:25:08.291Z,52.48
2023-05-22T17:27:36.609Z,52.76
2023-05-22T17:30:08.617Z,52.89
2023-05-22T17:32:43.988Z,53.68
2023-05-22T17:35:11.364Z,53.70
2023-05-22T17:37:40.019Z,53.99
2023-05-22T17:40:09.505Z,54.39
2023-05-22T17:42:36.403Z,54.67
2023-05-22T17:45:03.127Z,55.00
2023-05-22T17:47:29.994Z,55.09
2023-05-22T17:49:56.883Z,55.53
2023-05-22T17:52:24.090Z,55.70
2023-05-22T17:54:54.920Z,56.28
2023-05-22T17:57:26.664Z,56.63
2023-05-22T17:59:53.360Z,56.94
2023-05-22T18:02:20.480Z,57.46
2023-05-22T18:04:48.652Z,57.60
2023-05-22T18:07:17.317Z,57.96
2023-05-22T18:09:44.128Z,58.35
2023-05-22T18:12:17.894Z,58.73
2023-05-22T18:15:05.585Z,59.23
2023-05-22T18:17:33.188Z,59.21
2023-05-22T18:20:01.138Z,59.49
2023-05-22T18:22:27.847Z,59.76
2023-05-22T18:24:54.588Z,60.06
2023-05-22T18:27:27.131Z,60.33
2023-05-22T18:29:56.146Z,60.17
2023-05-22T18:32:30.373Z,60.41
2023-05-22T18:34:58.809Z,60.48
2023-05-22T18:37:29.461Z,60.61
2023-05-22T18:39:56.604Z,60.90
2023-05-22T18:42:25.505Z,61.07
2023-05-22T18:44:53.121Z,61.60
2023-05-22T18:47:29.663Z,61.88
2023-05-22T18:49:56.650Z,62.31
2023-05-22T18:52:23.431Z,62.58
2023-05-22T18:54:50.308Z,62.46
2023-05-22T18:57:17.156Z,62.56
2023-05-22T18:59:43.973Z,62.42
2023-05-22T19:02:11.231Z,62.45
2023-05-22T19:04:38.108Z,62.54
2023-05-22T19:07:05.231Z,62.99
2023-05-22T19:09:32.002Z,63.11
2023-05-22T19:12:01.395Z,63.21
2023-05-22T19:14:29.780Z,64.03
2023-05-22T19:17:02.945Z,64.19
2023-05-22T19:19:30.586Z,64.61
2023-05-22T19:21:57.319Z,64.74
2023-05-22T19:24:24.036Z,64.89
2023-05-22T19:26:50.872Z,65.01
2023-05-22T19:29:17.661Z,65.28
2023-05-22T19:31:45.327Z,65.36
2023-05-22T19:34:12.186Z,65.57
2023-05-22T19:36:38.910Z,65.71
2023-05-22T19:39:05.644Z,65.88
2023-05-22T19:41:32.396Z,65.96
2023-05-22T19:43:59.091Z,66.09
2023-05-22T19:46:25.959Z,65.94
2023-05-22T19:48:53.208Z,66.28
2023-05-22T19:51:19.997Z,66.37
2023-05-22T19:53:46.724Z,66.35
2023-05-22T19:56:13.464Z,66.60
2023-05-22T19:58:40.146Z,66.72
2023-05-22T20:01:06.893Z,66.93
2023-05-22T20:03:34.219Z,67.11
2023-05-22T20:06:01.043Z,67.34
2023-05-22T20:08:28.679Z,67.62
2023-05-22T20:10:55.453Z,67.85
2023-05-22T20:13:22.175Z,68.39
2023-05-22T20:15:51.404Z,68.51
2023-05-22T20:18:18.764Z,68.86
2023-05-22T20:20:45.624Z,68.46
2023-05-22T20:23:12.342Z,68.47
2023-05-22T20:25:39.337Z,68.74
2023-05-22T20:28:06.600Z,68.82
2023-05-22T20:30:33.523Z,68.85
2023-05-22T20:33:01.256Z,68.54
2023-05-22T20:35:30.704Z,68.58
2023-05-22T20:38:02.639Z,68.61
2023-05-22T20:40:32.507Z,68.56
2023-05-22T20:43:02.570Z,68.38
2023-05-22T20:45:32.941Z,68.35
2023-05-22T20:47:59.764Z,68.20
2023-05-22T20:50:27.355Z,68.26
2023-05-22T20:52:54.320Z,68.53
2023-05-22T20:55:21.081Z,68.55
2023-05-22T20:57:47.898Z,68.60
2023-05-22T21:00:14.910Z,68.60
2023-05-22T21:02:41.824Z,68.68
2023-05-22T21:05:09.065Z,68.71
2023-05-22T21:07:35.898Z,68.81
2023-05-22T21:10:03.148Z,69.08
2023-05-22T21:12:30.064Z,69.43
2023-05-22T21:14:56.913Z,69.52
2023-05-22T21:17:25.013Z,69.62
2023-05-22T21:19:52.016Z,70.30
2023-05-22T21:22:18.858Z,70.50
2023-05-22T21:24:45.649Z,70.72
2023-05-22T21:27:12.582Z,70.85
2023-05-22T21:29:39.316Z,71.32
2023-05-22T21:32:06.495Z,71.32
2023-05-22T21:34:33.218Z,71.84
2023-05-22T21:37:00.008Z,72.23
2023-05-22T21:39:26.717Z,72.29
2023-05-22T21:41:53.458Z,72.27
2023-05-22T21:44:20.165Z,72.67
2023-05-22T21:46:47.081Z,72.50
2023-05-22T21:49:13.928Z,72.63
2023-05-22T21:51:40.637Z,72.87
2023-05-22T21:54:07.462Z,72.85
2023-05-22T21:56:34.241Z,72.78
2023-05-22T21:59:01.121Z,73.07
2023-05-22T22:01:27.997Z,73.45
2023-05-22T22:03:55.808Z,73.19
2023-05-22T22:06:22.706Z,73.25
2023-05-22T22:08:49.483Z,73.26
2023-05-22T22:11:16.306Z,73.55
2023-05-22T22:13:43.121Z,73.39
2023-05-22T22:16:09.879Z,73.39
2023-05-22T22:18:37.725Z,73.37
2023-05-22T22:21:04.748Z,73.60
2023-05-22T22:23:31.584Z,74.01
2023-05-22T22:25:58.376Z,73.94
2023-05-22T22:28:25.140Z,73.96
2023-05-22T22:30:55.254Z,74.48
2023-05-22T22:33:25.613Z,74.42
2023-05-22T22:35:52.325Z,74.21
2023-05-22T22:38:19.216Z,74.52
2023-05-22T22:40:45.989Z,74.62
2023-05-22T22:43:12.836Z,74.61
2023-05-22T22:45:42.614Z,74.75
2023-05-22T22:48:09.486Z,74.72
2023-05-22T22:50:36.319Z,74.53
2023-05-22T22:53:03.081Z,74.49
2023-05-22T22:55:29.853Z,74.72
2023-05-22T22:57:56.784Z,74.72
2023-05-22T23:00:29.900Z,74.71
2023-05-22T23:02:56.844Z,75.02
2023-05-22T23:05:23.639Z,75.13
2023-05-22T23:07:50.388Z,74.96
2023-05-22T23:10:18.168Z,74.75
2023-05-22T23:12:44.943Z,74.71
2023-05-22T23:15:13.580Z,74.90
2023-05-22T23:17:42.218Z,74.64
2023-05-22T23:20:11.105Z,74.89
2023-05-22T23:22:37.911Z,74.65
2023-05-22T23:25:05.005Z,74.71
2023-05-22T23:27:31.898Z,74.29
2023-05-22T23:29:58.880Z,74.20
2023-05-22T23:32:25.635Z,73.80
2023-05-22T23:34:52.414Z,73.53
2023-05-22T23:37:19.136Z,73.28
2023-05-22T23:39:50.851Z,73.37
2023-05-22T23:42:17.820Z,72.97
2023-05-22T23:44:44.578Z,73.07
2023-05-22T23:47:12.757Z,73.04
2023-05-22T23:49:39.455Z,73.01
2023-05-22T23:52:06.960Z,73.41
2023-05-22T23:54:33.782Z,73.39
2023-05-22T23:57:00.644Z,73.53
2023-05-22T23:59:27.305Z,73.62
